Time;durP1;ratioP1;P1;durP2;ratioP2;P2;SDS_P1;SDS_P2;PMS_P1;PMS_P2;Temp;Humidity;BMP_temperature;BMP_pressure;BME280_temperature;BME280_humidity;BME280_pressure;Samples;Min_cycle;Max_cycle;Signal;HPM_P1;HPM_P2
2023/04/15 00:03:47;;;;;;;6.35;2.20;;;;;;;6.11;88.58;98851.66;12220221;19;20099;-82
2023/04/15 00:07:49;;;;;;;6.72;1.80;;;;;;;6.10;89.00;98853.56;12185945;19;20002;-82
2023/04/15 00:11:51;;;;;;;3.90;1.67;;;;;;;6.09;89.07;98840.94;12204771;19;20003;-82
2023/04/15 00:15:53;;;;;;;7.13;1.90;;;;;;;6.08;89.62;98849.41;12202487;19;20002;-82
2023/04/15 00:19:54;;;;;;;5.95;1.77;;;;;;;6.07;90.16;98839.56;12184072;19;20799;-82
2023/04/15 00:23:56;;;;;;;3.13;2.00;;;;;;;6.02;90.17;98839.44;12201034;19;20010;-82
2023/04/15 00:27:58;;;;;;;6.88;2.00;;;;;;;6.01;89.82;98840.50;12203559;19;20022;-81
2023/04/15 00:32:00;;;;;;;4.78;1.73;;;;;;;6.00;90.13;98830.66;12178049;19;20014;-81
2023/04/15 00:36:02;;;;;;;4.65;1.70;;;;;;;5.98;90.38;98833.66;12194315;19;20010;-82
2023/04/15 00:40:05;;;;;;;4.90;1.52;;;;;;;5.94;91.89;98830.53;12200675;19;20017;-82
2023/04/15 00:44:06;;;;;;;6.07;1.42;;;;;;;5.92;92.49;98827.22;12179510;19;20561;-82
2023/04/15 00:48:09;;;;;;;4.17;1.87;;;;;;;5.89;93.19;98818.66;12202771;19;20388;-81
2023/04/15 00:52:12;;;;;;;3.95;1.80;;;;;;;5.86;94.15;98811.78;12179913;19;20003;-82
2023/04/15 00:56:14;;;;;;;5.10;2.03;;;;;;;5.84;94.75;98813.09;12199620;19;20006;-81
2023/04/15 01:00:17;;;;;;;3.60;1.65;;;;;;;5.80;95.76;98815.50;12201074;19;20398;-81
2023/04/15 01:04:19;;;;;;;3.45;2.00;;;;;;;5.77;96.12;98815.97;12178538;19;20019;-81
2023/04/15 01:08:21;;;;;;;7.97;4.07;;;;;;;5.75;96.65;98814.56;12205702;19;20491;-80
2023/04/15 01:12:25;;;;;;;3.00;1.58;;;;;;;5.74;97.45;98826.53;12200713;19;20066;-80
2023/04/15 01:16:27;;;;;;;3.25;1.45;;;;;;;5.72;98.12;98818.59;12181539;19;20004;-80
2023/04/15 01:20:29;;;;;;;3.93;1.87;;;;;;;5.70;98.93;98824.28;12198345;19;20066;-79
2023/04/15 01:24:32;;;;;;;3.42;1.70;;;;;;;5.70;99.80;98837.97;12202529;19;20030;-79
2023/04/15 01:28:37;;;;;;;5.00;1.60;;;;;;;5.68;100.00;98833.81;12178350;19;20017;-80
2023/04/15 01:32:39;;;;;;;3.70;1.80;;;;;;;5.64;100.00;98827.19;12200965;19;20006;-80
2023/04/15 01:36:40;;;;;;;4.35;2.35;;;;;;;5.57;100.00;98827.31;12201365;19;20601;-80
2023/04/15 01:40:42;;;;;;;3.50;1.55;;;;;;;5.51;100.00;98822.00;12163799;19;20472;-80
2023/04/15 01:44:44;;;;;;;4.72;2.25;;;;;;;5.48;100.00;98826.03;12197144;19;20035;-79
2023/04/15 01:48:46;;;;;;;7.13;1.60;;;;;;;5.47;100.00;98817.00;12209209;19;20022;-80
2023/04/15 01:52:48;;;;;;;3.90;1.80;;;;;;;5.47;100.00;98818.88;12226231;19;19998;-80
2023/04/15 01:56:50;;;;;;;4.25;2.00;;;;;;;5.46;100.00;98820.78;12197150;19;20003;-80
2023/04/15 02:00:52;;;;;;;4.70;1.88;;;;;;;5.44;100.00;98822.09;12199182;19;20174;-80
2023/04/15 02:04:54;;;;;;;3.50;1.80;;;;;;;5.43;100.00;98826.75;12177064;19;20487;-81
2023/04/15 02:08:57;;;;;;;3.37;1.40;;;;;;;5.44;100.00;98825.69;12194194;19;20027;-81
2023/04/15 02:13:00;;;;;;;3.40;1.50;;;;;;;5.44;100.00;98825.69;12193699;19;20332;-80
2023/04/15 02:17:06;;;;;;;3.92;1.80;;;;;;;5.43;100.00;98824.00;12172830;19;20003;-80
2023/04/15 02:21:11;;;;;;;2.67;1.60;;;;;;;5.41;100.00;98817.13;12195788;19;20009;-80
2023/04/15 02:25:15;;;;;;;4.60;1.90;;;;;;;5.38;100.00;98818.44;12173370;19;20479;-80
2023/04/15 02:29:17;;;;;;;4.88;1.60;;;;;;;5.33;100.00;98821.06;12194046;19;20011;-81
2023/04/15 02:33:20;;;;;;;3.53;1.73;;;;;;;5.29;100.00;98821.78;12194319;19;20002;-79
2023/04/15 02:37:23;;;;;;;4.30;1.80;;;;;;;5.25;100.00;98816.78;12184933;19;20010;-80
2023/04/15 02:41:27;;;;;;;4.90;2.10;;;;;;;5.25;100.00;98821.44;12203961;19;20006;-80
2023/04/15 02:45:29;;;;;;;2.38;1.42;;;;;;;5.22;100.00;98836.38;12203942;19;20014;-81
2023/04/15 02:49:35;;;;;;;3.47;1.88;;;;;;;5.10;100.00;98832.00;12182088;19;20091;-80
2023/04/15 02:53:37;;;;;;;4.68;1.75;;;;;;;4.97;100.00;98838.56;12206794;19;20026;-80
2023/04/15 02:57:40;;;;;;;4.50;1.67;;;;;;;4.90;100.00;98835.91;12203756;19;20007;-81
2023/04/15 03:01:43;;;;;;;5.18;1.90;;;;;;;4.82;100.00;98833.56;12180126;19;20036;-80
2023/04/15 03:05:45;;;;;;;6.18;1.75;;;;;;;4.78;100.00;98833.19;12205703;19;20023;-80
2023/04/15 03:09:47;;;;;;;7.60;2.60;;;;;;;4.72;100.00;98841.50;12204939;19;20006;-79
2023/04/15 03:13:48;;;;;;;3.78;1.83;;;;;;;4.56;100.00;98843.03;12181726;19;20097;-81
2023/04/15 03:18:03;;;;;;;4.53;2.50;;;;;;;4.47;100.00;98845.25;12205729;19;20030;-80
2023/04/15 03:22:07;;;;;;;4.95;1.77;;;;;;;4.45;100.00;98844.66;12189364;19;20476;-81
2023/04/15 03:26:09;;;;;;;4.25;1.70;;;;;;;4.40;100.00;98841.78;12204790;19;20002;-80
2023/04/15 03:30:11;;;;;;;2.75;1.63;;;;;;;4.37;100.00;98834.06;12201761;19;20107;-80
2023/04/15 03:34:14;;;;;;;2.10;1.45;;;;;;;4.34;100.00;98837.25;12180653;19;20006;-80
2023/04/15 03:38:17;;;;;;;5.18;1.75;;;;;;;4.26;100.00;98835.72;12205141;19;20011;-80
2023/04/15 03:42:19;;;;;;;3.03;1.75;;;;;;;4.23;100.00;98838.91;12211661;19;20430;-81
2023/04/15 03:46:20;;;;;;;5.25;1.60;;;;;;;4.22;100.00;98837.22;12179515;19;20055;-80
2023/04/15 03:50:22;;;;;;;6.03;2.00;;;;;;;4.23;100.00;98843.53;12203315;19;20391;-80
2023/04/15 03:54:24;;;;;;;5.40;1.70;;;;;;;4.24;100.00;98842.47;12200993;19;20108;-79
2023/04/15 03:58:26;;;;;;;4.72;1.98;;;;;;;4.22;100.00;98841.84;12181985;19;19999;-80
2023/04/15 04:02:27;;;;;;;5.05;2.50;;;;;;;4.24;100.00;98839.72;12199879;19;20010;-79
2023/04/15 04:06:30;;;;;;;4.30;2.75;;;;;;;4.27;100.00;98836.53;12201250;19;20030;-80
2023/04/15 04:10:31;;;;;;;3.42;2.15;;;;;;;4.28;100.00;98821.81;12178441;19;20800;-80
2023/04/15 04:14:33;;;;;;;5.88;2.30;;;;;;;4.32;100.00;98831.22;12225763;19;20003;-81
2023/04/15 04:18:35;;;;;;;3.83;2.25;;;;;;;4.34;100.00;98839.97;12255256;19;20013;-80
2023/04/15 04:22:38;;;;;;;6.20;2.20;;;;;;;4.35;100.00;98844.41;12188044;19;20011;-80
2023/04/15 04:26:40;;;;;;;4.47;2.00;;;;;;;4.35;100.00;98849.84;12205633;19;20003;-80
2023/04/15 04:30:42;;;;;;;4.82;2.20;;;;;;;4.33;100.00;98847.34;12205285;19;20014;-80
2023/04/15 04:34:44;;;;;;;3.65;1.90;;;;;;;4.31;100.00;98846.75;12183358;19;20021;-79
2023/04/15 04:38:46;;;;;;;6.13;2.17;;;;;;;4.33;100.00;98846.50;12199188;19;20489;-80
2023/04/15 04:42:48;;;;;;;3.65;1.90;;;;;;;4.37;100.00;98853.16;12201430;19;19999;-81
2023/04/15 04:46:49;;;;;;;3.65;1.80;;;;;;;4.41;100.00;98848.91;12180932;19;20046;-80
2023/04/15 04:50:51;;;;;;;3.35;1.85;;;;;;;4.46;100.00;98850.94;12202521;19;20363;-80
2023/04/15 04:54:53;;;;;;;4.03;2.23;;;;;;;4.51;100.00;98857.34;12199959;19;20003;-80
2023/04/15 04:58:55;;;;;;;5.18;1.85;;;;;;;4.54;100.00;98848.69;12181444;19;20025;-80
2023/04/15 05:02:57;;;;;;;4.57;2.20;;;;;;;4.59;100.00;98858.09;12198405;19;20006;-80
2023/04/15 05:06:59;;;;;;;5.97;2.00;;;;;;;4.59;100.00;98855.38;12205857;19;20006;-80
2023/04/15 05:11:02;;;;;;;3.10;1.33;;;;;;;4.62;100.00;98858.44;12186970;19;20013;-79
2023/04/15 05:15:05;;;;;;;3.65;1.83;;;;;;;4.66;100.00;98858.81;12237366;19;20066;-81
2023/04/15 05:19:07;;;;;;;4.00;1.80;;;;;;;4.69;100.00;98858.34;12260481;19;20049;-82
2023/04/15 05:23:09;;;;;;;4.32;1.95;;;;;;;4.67;100.00;98874.09;12241126;19;20066;-79
2023/04/15 05:27:11;;;;;;;4.30;2.08;;;;;;;4.53;100.00;98877.06;12204998;19;20011;-80
2023/04/15 05:31:13;;;;;;;3.92;1.98;;;;;;;4.46;100.00;98879.06;12180297;19;20006;-81
2023/04/15 05:35:15;;;;;;;4.23;2.27;;;;;;;4.43;100.00;98876.81;12202524;19;20006;-82
2023/04/15 05:39:16;;;;;;;4.47;2.03;;;;;;;4.45;100.00;98877.38;12199178;19;20480;-81
2023/04/15 05:43:18;;;;;;;4.07;2.00;;;;;;;4.49;100.00;98883.19;12174352;19;20015;-81
2023/04/15 05:47:20;;;;;;;5.63;2.45;;;;;;;4.44;100.00;98878.44;12201962;19;20006;-82
2023/04/15 05:51:22;;;;;;;5.95;2.13;;;;;;;4.50;100.00;98876.69;12199342;19;20485;-81
2023/04/15 05:55:23;;;;;;;4.88;2.17;;;;;;;4.63;100.00;98883.84;12175970;19;20010;-80
2023/04/15 05:59:26;;;;;;;9.45;2.30;;;;;;;4.73;100.00;98887.66;12199167;19;20101;-81
2023/04/15 06:03:28;;;;;;;4.10;2.40;;;;;;;4.86;100.00;98883.06;12197120;19;20479;-81
2023/04/15 06:07:30;;;;;;;5.05;1.92;;;;;;;4.98;100.00;98887.44;12175665;19;20068;-80
2023/04/15 06:11:32;;;;;;;5.32;2.70;;;;;;;5.13;100.00;98892.44;12207736;19;20049;-81
2023/04/15 06:15:34;;;;;;;5.75;2.65;;;;;;;5.28;100.00;98900.16;12200901;19;19998;-81
2023/04/15 06:19:36;;;;;;;5.17;2.57;;;;;;;5.41;100.00;98910.88;12177179;19;20003;-81
2023/04/15 06:23:40;;;;;;;4.03;2.20;;;;;;;5.47;100.00;98911.78;12198294;19;20010;-81
2023/04/15 06:27:41;;;;;;;6.30;2.78;;;;;;;5.55;100.00;98913.34;12196673;19;20014;-80
2023/04/15 06:31:43;;;;;;;5.50;2.65;;;;;;;5.70;100.00;98919.13;12175900;19;20006;-81
2023/04/15 06:35:46;;;;;;;4.47;2.78;;;;;;;5.96;100.00;98920.56;12194975;19;20015;-82
2023/04/15 06:39:48;;;;;;;4.10;1.95;;;;;;;6.21;100.00;98925.69;12193827;19;20015;-79
2023/04/15 06:43:50;;;;;;;4.72;3.25;;;;;;;6.35;100.00;98932.56;12172608;19;20030;-80
2023/04/15 06:47:51;;;;;;;5.03;2.70;;;;;;;6.56;100.00;98935.69;12194955;19;20002;-81
2023/04/15 06:51:53;;;;;;;5.30;2.78;;;;;;;6.76;100.00;98933.31;12193698;19;20256;-80
2023/04/15 06:55:55;;;;;;;5.15;3.17;;;;;;;6.94;100.00;98935.00;12169814;19;20006;-82
2023/04/15 06:59:57;;;;;;;5.50;3.08;;;;;;;7.10;100.00;98938.81;12192506;19;20010;-80
2023/04/15 07:03:59;;;;;;;7.00;4.28;;;;;;;7.29;100.00;98945.72;12191354;19;20503;-81
2023/04/15 07:08:01;;;;;;;7.82;3.55;;;;;;;7.50;100.00;98937.81;12171262;19;20081;-80
2023/04/15 07:12:03;;;;;;;7.90;3.97;;;;;;;7.62;100.00;98933.06;12194293;19;20003;-81
2023/04/15 07:16:04;;;;;;;7.53;3.83;;;;;;;7.73;100.00;98940.38;12193889;19;20006;-82
2023/04/15 07:20:07;;;;;;;7.82;4.22;;;;;;;7.87;100.00;98935.31;12179476;19;20026;-80
2023/04/15 07:24:09;;;;;;;7.75;4.18;;;;;;;8.12;100.00;98934.84;12205872;19;20014;-80
2023/04/15 07:28:11;;;;;;;7.67;4.43;;;;;;;8.54;100.00;98939.75;12184043;19;20472;-80
2023/04/15 07:32:12;;;;;;;7.15;4.30;;;;;;;8.90;100.00;98935.47;12197345;19;20023;-80
2023/04/15 07:36:14;;;;;;;8.20;4.13;;;;;;;9.11;98.70;98941.97;12189349;19;20010;-80
2023/04/15 07:40:16;;;;;;;7.82;4.70;;;;;;;9.33;97.29;98941.03;12170785;19;20014;-81
2023/04/15 07:44:18;;;;;;;8.57;5.27;;;;;;;9.56;94.02;98931.59;12206202;19;20478;-80
2023/04/15 07:48:20;;;;;;;8.93;4.30;;;;;;;9.80;92.52;98934.75;12203988;19;20081;-80
2023/04/15 07:52:22;;;;;;;7.18;4.10;;;;;;;10.07;91.82;98942.88;12183044;19;20030;-80
2023/04/15 07:56:23;;;;;;;12.95;5.95;;;;;;;10.26;88.42;98937.72;12206543;19;20010;-80
2023/04/15 08:00:25;;;;;;;8.93;5.82;;;;;;;10.39;89.12;98931.78;12205500;19;20021;-80
2023/04/15 08:04:27;;;;;;;9.38;5.10;;;;;;;10.49;89.27;98940.06;12182400;19;20000;-79
2023/04/15 08:08:32;;;;;;;8.88;4.85;;;;;;;10.69;89.11;98936.53;12212514;19;20038;-80
2023/04/15 08:12:36;;;;;;;9.32;4.90;;;;;;;10.75;87.50;98944.81;12206786;19;20528;-80
2023/04/15 08:16:37;;;;;;;8.83;5.20;;;;;;;11.04;86.12;98945.97;12192019;19;20010;-80
2023/04/15 08:20:39;;;;;;;11.13;5.30;;;;;;;11.27;85.18;98941.84;12213198;19;20672;-81
2023/04/15 08:24:43;;;;;;;10.02;5.78;;;;;;;11.52;83.61;98948.47;12211145;19;20007;-81
2023/04/15 08:28:45;;;;;;;8.00;4.72;;;;;;;11.54;80.90;98940.72;12186248;19;20021;-79
2023/04/15 08:32:49;;;;;;;15.07;5.50;;;;;;;11.70;78.90;98947.06;12204921;19;20007;-79
2023/04/15 08:36:52;;;;;;;10.02;5.47;;;;;;;11.78;78.65;98946.50;12220072;19;20236;-79
2023/04/15 08:40:57;;;;;;;9.93;5.18;;;;;;;11.98;78.27;98948.41;12185332;19;20642;-79
2023/04/15 08:45:00;;;;;;;9.73;5.05;;;;;;;12.33;76.66;98947.47;12199470;19;20028;-80
2023/04/15 08:49:03;;;;;;;8.68;4.72;;;;;;;12.37;72.11;98950.47;12204254;19;20337;-80
2023/04/15 08:53:06;;;;;;;7.50;4.40;;;;;;;12.42;70.81;98954.06;12181898;19;20007;-80
2023/04/15 08:57:08;;;;;;;8.02;3.90;;;;;;;12.62;69.58;98949.56;12244471;19;20003;-79
2023/04/15 09:01:13;;;;;;;6.40;3.60;;;;;;;12.88;65.43;98952.97;12224887;19;20512;-79
2023/04/15 09:05:15;;;;;;;5.28;3.00;;;;;;;13.11;67.06;98948.69;12249246;19;20003;-79
2023/04/15 09:09:17;;;;;;;7.10;3.40;;;;;;;13.06;61.57;98962.53;12257883;19;19994;-79
2023/04/15 09:13:19;;;;;;;4.22;2.80;;;;;;;13.19;63.30;98957.19;12229774;19;20025;-80
2023/04/15 09:17:21;;;;;;;6.85;3.13;;;;;;;13.33;61.72;98962.13;12251625;19;20051;-79
2023/04/15 09:21:23;;;;;;;6.30;3.17;;;;;;;13.44;60.50;98969.22;12253243;19;20006;-79
2023/04/15 09:25:27;;;;;;;4.82;2.60;;;;;;;13.53;59.94;98966.66;12228495;19;20002;-80
2023/04/15 09:29:28;;;;;;;6.28;2.78;;;;;;;13.56;58.17;98977.97;12251139;19;20002;-79
2023/04/15 09:33:30;;;;;;;4.00;2.43;;;;;;;13.88;57.28;98974.63;12251930;19;20002;-80
2023/04/15 09:37:35;;;;;;;4.35;2.35;;;;;;;14.11;53.12;98983.28;12200127;19;20014;-81
2023/04/15 09:41:40;;;;;;;4.15;1.73;;;;;;;14.31;51.70;98971.97;12219072;19;20043;-80
2023/04/15 09:45:52;;;;;;;4.82;1.80;;;;;;;14.50;51.91;98990.59;12205926;19;20019;-80
2023/04/15 09:49:56;;;;;;;3.95;2.20;;;;;;;14.87;50.69;98975.97;12189545;19;20002;-79
2023/04/15 09:53:58;;;;;;;2.17;1.40;;;;;;;14.83;49.11;98983.25;12209490;19;20013;-81
2023/04/15 09:58:00;;;;;;;2.78;1.30;;;;;;;15.04;50.65;98983.81;12207250;19;19999;-81
2023/04/15 10:02:05;;;;;;;3.95;1.42;;;;;;;15.26;49.28;98986.81;12186574;19;20010;-80
2023/04/15 10:06:08;;;;;;;4.07;1.23;;;;;;;15.26;48.79;98991.53;12215423;19;20107;-81
2023/04/15 10:10:11;;;;;;;3.95;1.48;;;;;;;15.00;46.63;98991.91;12188410;19;20010;-80
2023/04/15 10:14:14;;;;;;;3.00;1.20;;;;;;;14.97;47.56;99000.81;12205936;19;19999;-80
2023/04/15 10:18:22;;;;;;;2.28;1.55;;;;;;;14.96;47.09;99004.72;12210631;19;20014;-79
2023/04/15 10:22:27;;;;;;;4.22;1.58;;;;;;;14.89;47.06;99011.75;12178114;19;20126;-80
2023/04/15 10:26:29;;;;;;;3.50;1.30;;;;;;;14.71;46.07;99024.47;12209590;19;20409;-79
2023/04/15 10:30:32;;;;;;;;;;;;;;;14.59;47.49;99011.84;12192223;19;20011;-79
2023/04/15 10:34:35;;;;;;;2.53;1.20;;;;;;;14.84;47.06;99020.97;12175392;19;19915;-80
2023/04/15 10:38:40;;;;;;;4.35;1.80;;;;;;;14.90;47.53;99021.72;12202791;19;20034;-79
2023/04/15 10:42:42;;;;;;;6.57;1.48;;;;;;;14.95;48.79;99028.03;12193529;19;20014;-79
2023/04/15 10:46:44;;;;;;;2.38;1.50;;;;;;;14.95;48.96;99041.06;12173149;19;20520;-80
2023/04/15 10:51:02;;;;;;;3.83;1.65;;;;;;;15.02;49.60;99041.53;12198592;19;20028;-79
2023/04/15 10:55:18;;;;;;;4.40;1.60;;;;;;;15.07;50.25;99035.91;12238328;19;20010;-80
2023/04/15 10:59:21;;;;;;;2.35;1.42;;;;;;;15.15;50.36;99042.75;12249274;19;20002;-78
2023/04/15 11:03:40;;;;;;;3.78;1.38;;;;;;;15.06;49.84;99042.59;12234547;19;20017;-81
2023/04/15 11:07:43;;;;;;;2.22;1.23;;;;;;;15.12;49.99;99035.84;12187003;19;20014;-78
2023/04/15 11:12:08;;;;;;;4.60;2.47;;;;;;;15.18;50.01;99044.94;12205071;19;20086;-80
2023/04/15 11:16:10;;;;;;;2.72;1.48;;;;;;;15.06;48.91;99041.78;12180722;19;20018;-82
2023/04/15 11:20:14;;;;;;;3.60;1.20;;;;;;;15.17;49.32;99037.72;12210114;19;20011;-80
2023/04/15 11:24:26;;;;;;;3.20;1.70;;;;;;;15.33;49.15;99043.91;12206126;19;20006;-79
2023/04/15 11:28:29;;;;;;;4.15;1.88;;;;;;;15.40;47.30;99047.94;12190192;19;20027;-79
2023/04/15 11:32:31;;;;;;;3.70;1.90;;;;;;;15.60;47.02;99051.53;12206784;19;20013;-80
2023/04/15 11:36:34;;;;;;;2.17;1.37;;;;;;;15.50;46.52;99053.34;12209823;19;20007;-79
2023/04/15 11:40:36;;;;;;;2.47;1.42;;;;;;;15.40;46.81;99050.72;12187939;19;20018;-80
2023/04/15 11:44:38;;;;;;;1.95;1.38;;;;;;;15.64;47.18;99063.69;12205740;19;20348;-80
2023/04/15 11:48:45;;;;;;;3.95;1.50;;;;;;;15.86;44.94;99061.16;12204074;19;20010;-81
2023/04/15 11:52:58;;;;;;;4.10;1.60;;;;;;;16.18;45.09;99059.47;12176780;19;20074;-79
2023/04/15 11:57:01;;;;;;;3.42;1.90;;;;;;;16.13;43.72;99057.63;12206699;19;20075;-81
2023/04/15 12:01:04;;;;;;;2.88;1.33;;;;;;;16.02;42.77;99055.31;12202711;19;20018;-81
2023/04/15 12:05:07;;;;;;;2.47;1.35;;;;;;;15.93;42.14;99061.56;12181393;19;20014;-79
2023/04/15 12:09:13;;;;;;;2.88;1.23;;;;;;;15.76;43.17;99064.06;12205008;19;20050;-79
2023/04/15 12:13:15;;;;;;;2.90;1.40;;;;;;;15.87;43.67;99060.00;12182542;19;20010;-79
2023/04/15 12:17:22;;;;;;;2.85;1.50;;;;;;;16.01;44.22;99070.34;12207124;19;20070;-79
2023/04/15 12:21:25;;;;;;;;;;;;;;;15.73;44.92;99067.44;12209390;19;20479;-79
2023/04/15 12:25:34;;;;;;;5.13;1.38;;;;;;;15.63;44.99;99070.38;12193915;19;19953;-79
2023/04/15 12:29:39;;;;;;;3.20;1.30;;;;;;;15.56;45.08;99079.09;12228901;19;20015;-79
2023/04/15 12:33:41;;;;;;;2.30;1.05;;;;;;;14.96;45.90;99089.88;12213224;19;20010;-80
2023/04/15 12:37:43;;;;;;;2.13;1.00;;;;;;;14.95;47.13;99096.56;12195688;19;20045;-80
2023/04/15 12:41:45;;;;;;;1.90;1.00;;;;;;;14.83;47.65;99105.28;12212302;19;20023;-79
2023/04/15 12:45:48;;;;;;;2.90;1.05;;;;;;;14.69;49.06;99107.13;12204409;19;20011;-78
2023/04/15 12:49:50;;;;;;;4.10;1.47;;;;;;;14.37;50.32;99125.16;12177934;19;20007;-80
2023/04/15 12:53:52;;;;;;;3.55;1.70;;;;;;;14.01;54.79;99144.88;12207615;19;20022;-82
2023/04/15 12:57:54;;;;;;;4.27;1.63;;;;;;;13.53;61.44;99157.63;12209319;19;20010;-80
2023/04/15 13:01:56;;;;;;;7.43;2.08;;;;;;;13.22;64.42;99166.06;12190145;19;20499;-79
2023/04/15 13:06:01;;;;;;;5.00;2.05;;;;;;;12.93;68.60;99175.00;12207635;19;20707;-82
2023/04/15 13:10:03;;;;;;;3.42;2.10;;;;;;;12.80;71.27;99178.38;12213372;19;20003;-81
2023/04/15 13:14:07;;;;;;;5.07;2.47;;;;;;;12.94;71.44;99179.44;12194937;19;19999;-81
2023/04/15 13:18:09;;;;;;;5.78;2.60;;;;;;;13.21;75.97;99192.91;12221288;19;20010;-82
2023/04/15 13:22:11;;;;;;;4.93;2.13;;;;;;;13.44;76.28;99179.53;12198728;19;19998;-79
2023/04/15 13:26:15;;;;;;;;;;;;;;;13.14;77.63;99197.06;12210803;19;20019;-80
2023/04/15 13:30:20;;;;;;;3.37;2.27;;;;;;;12.69;81.39;99198.84;12213237;19;20331;-81
2023/04/15 13:34:22;;;;;;;3.25;1.80;;;;;;;12.60;85.79;99198.56;12227805;19;20014;-80
2023/04/15 13:38:25;;;;;;;2.97;2.00;;;;;;;12.58;86.22;99205.47;12256479;19;20002;-79
2023/04/15 13:42:28;;;;;;;3.83;2.17;;;;;;;12.64;90.82;99210.75;12257480;19;20002;-86
2023/04/15 13:46:30;;;;;;;5.25;2.10;;;;;;;12.69;90.95;99213.47;12238558;19;20011;-84
2023/04/15 13:50:32;;;;;;;5.63;1.73;;;;;;;12.59;88.68;99207.97;12251528;19;20007;-79
2023/04/15 13:54:34;;;;;;;3.60;2.10;;;;;;;12.33;93.29;99215.44;12247059;19;20010;-81
2023/04/15 13:58:39;;;;;;;3.42;1.55;;;;;;;12.23;94.03;99223.72;12204078;19;20017;-82
2023/04/15 14:02:41;;;;;;;3.25;1.90;;;;;;;12.23;94.37;99216.28;12209096;19;20018;-82
2023/04/15 14:06:44;;;;;;;3.28;1.63;;;;;;;12.33;93.03;99229.25;12210754;19;20049;-82
2023/04/15 14:10:48;;;;;;;2.28;1.20;;;;;;;12.29;94.40;99230.91;12190276;19;20434;-82
2023/04/15 14:14:50;;;;;;;2.17;1.25;;;;;;;12.11;93.30;99234.22;12216064;19;20006;-82
2023/04/15 14:18:52;;;;;;;2.67;1.13;;;;;;;11.87;92.91;99243.00;12207315;19;20003;-82
2023/04/15 14:22:55;;;;;;;2.30;1.17;;;;;;;11.69;93.20;99248.97;12182544;19;20029;-82
2023/04/15 14:26:58;;;;;;;1.45;0.88;;;;;;;11.62;92.05;99238.19;12206391;19;20010;-83
2023/04/15 14:31:00;;;;;;;2.17;1.10;;;;;;;11.57;92.79;99257.47;12201245;19;20030;-82
2023/04/15 14:35:03;;;;;;;2.40;1.17;;;;;;;11.46;95.17;99250.28;12180894;19;20010;-82
2023/04/15 14:39:05;;;;;;;3.20;0.90;;;;;;;11.33;97.16;99265.38;12198989;19;20032;-83
2023/04/15 14:43:07;;;;;;;3.07;1.00;;;;;;;11.17;99.89;99270.00;12195700;19;20061;-80
2023/04/15 14:47:10;;;;;;;2.17;0.85;;;;;;;11.12;99.71;99280.97;12210412;19;20003;-80
2023/04/15 14:51:12;;;;;;;1.17;0.90;;;;;;;10.88;100.00;99283.31;12200887;19;20006;-81
2023/04/15 14:55:14;;;;;;;1.92;1.20;;;;;;;10.72;100.00;99299.72;12178251;19;20481;-80
2023/04/15 14:59:16;;;;;;;2.25;1.30;;;;;;;10.60;100.00;99299.06;12204247;19;20710;-83
2023/04/15 15:03:18;;;;;;;1.80;1.00;;;;;;;10.59;100.00;99299.31;12197641;19;20014;-83
2023/04/15 15:07:20;;;;;;;1.40;0.93;;;;;;;10.50;100.00;99310.03;12179812;19;20006;-83
2023/04/15 15:11:22;;;;;;;2.15;1.10;;;;;;;10.41;100.00;99320.69;12196540;19;20007;-81
2023/04/15 15:15:24;;;;;;;1.95;1.17;;;;;;;10.27;100.00;99325.75;12202888;19;20014;-81
2023/04/15 15:19:30;;;;;;;2.25;1.17;;;;;;;10.19;100.00;99319.84;12181155;19;20018;-82
2023/04/15 15:23:32;;;;;;;1.83;1.33;;;;;;;10.06;100.00;99325.78;12202630;19;20006;-83
2023/04/15 15:27:33;;;;;;;2.92;1.25;;;;;;;9.95;100.00;99328.41;12203055;19;20385;-84
2023/04/15 15:31:38;;;;;;;2.80;1.80;;;;;;;9.85;100.00;99335.72;12179510;19;20003;-82
2023/04/15 15:35:41;;;;;;;3.97;2.33;;;;;;;9.74;100.00;99340.25;12208334;19;20011;-83
2023/04/15 15:39:45;;;;;;;5.05;1.88;;;;;;;9.76;100.00;99338.09;12206101;19;20007;-82
2023/04/15 15:43:47;;;;;;;3.05;2.03;;;;;;;9.76;100.00;99354.59;12195867;19;20014;-83
2023/04/15 15:47:50;;;;;;;2.95;1.98;;;;;;;9.72;100.00;99347.94;12216962;19;20015;-85
2023/04/15 15:51:52;;;;;;;3.40;1.73;;;;;;;9.66;100.00;99355.28;12210509;19;20014;-83
2023/04/15 15:55:54;;;;;;;2.92;1.45;;;;;;;9.58;100.00;99353.81;12190659;19;20017;-83
2023/04/15 15:59:56;;;;;;;2.65;1.65;;;;;;;9.59;100.00;99371.16;12209016;19;20006;-83
2023/04/15 16:04:13;;;;;;;2.35;1.25;;;;;;;9.53;100.00;99378.50;12208939;19;20010;-84
2023/04/15 16:08:15;;;;;;;3.22;1.30;;;;;;;9.47;100.00;99379.50;12240624;19;20050;-84
2023/04/15 16:12:17;;;;;;;2.33;1.40;;;;;;;9.38;100.00;99386.53;12212063;19;20127;-83
2023/04/15 16:16:19;;;;;;;2.90;1.80;;;;;;;9.37;100.00;99387.63;12191353;19;20129;-84
2023/04/15 16:20:21;;;;;;;3.20;1.55;;;;;;;9.24;100.00;99385.22;12214057;19;20018;-82
2023/04/15 16:24:23;;;;;;;4.63;2.20;;;;;;;9.15;100.00;99398.53;12211323;19;20026;-83
2023/04/15 16:28:25;;;;;;;5.70;2.83;;;;;;;9.10;100.00;99398.47;12163039;19;20014;-83
2023/04/15 16:32:30;;;;;;;3.05;1.88;;;;;;;9.10;100.00;99413.06;12204487;19;20703;-81
2023/04/15 16:36:35;;;;;;;4.95;2.42;;;;;;;9.02;100.00;99401.66;12197232;19;20050;-83
2023/04/15 16:40:40;;;;;;;4.10;2.13;;;;;;;8.91;100.00;99408.88;12184403;19;20011;-83
2023/04/15 16:44:42;;;;;;;4.57;2.40;;;;;;;8.82;100.00;99413.13;12202829;19;20023;-82
2023/04/15 16:49:10;;;;;;;4.93;2.63;;;;;;;8.82;100.00;99421.34;12217490;19;20038;-85
2023/04/15 16:53:15;;;;;;;4.70;2.78;;;;;;;8.83;100.00;99423.00;12237878;19;20007;-86
2023/04/15 16:57:18;;;;;;;4.45;2.40;;;;;;;8.84;100.00;99430.19;12256331;19;20010;-81
2023/04/15 17:01:24;;;;;;;4.53;2.88;;;;;;;8.80;100.00;99429.00;12180566;19;20010;-82
2023/04/15 17:05:29;;;;;;;4.43;2.45;;;;;;;8.71;100.00;99433.25;12197283;19;20038;-81
2023/04/15 17:09:33;;;;;;;5.10;2.90;;;;;;;8.59;100.00;99439.63;12196556;19;20002;-84
2023/04/15 17:13:35;;;;;;;4.28;2.92;;;;;;;8.55;100.00;99443.94;12175579;19;21281;-83
2023/04/15 17:17:37;;;;;;;8.15;3.35;;;;;;;8.54;100.00;99453.28;12195569;19;20079;-82
2023/04/15 17:21:40;;;;;;;5.35;2.92;;;;;;;8.57;100.00;99451.94;12194478;19;20014;-81
2023/04/15 17:25:42;;;;;;;7.53;3.43;;;;;;;8.53;100.00;99459.00;12171891;19;21246;-83
2023/04/15 17:29:44;;;;;;;5.63;3.08;;;;;;;8.50;100.00;99454.81;12191505;19;20006;-82
2023/04/15 17:33:46;;;;;;;6.95;3.90;;;;;;;8.46;100.00;99464.63;12191240;19;20119;-82
2023/04/15 17:38:07;;;;;;;6.55;3.45;;;;;;;8.48;100.00;99469.88;12169489;19;20007;-82
2023/04/15 17:42:10;;;;;;;7.63;4.20;;;;;;;8.46;100.00;99472.88;12201224;19;20015;-84
2023/04/15 17:46:12;;;;;;;7.53;4.15;;;;;;;8.47;100.00;99471.78;12175897;19;20110;-81
2023/04/15 17:50:15;;;;;;;8.40;4.32;;;;;;;8.50;100.00;99489.69;12198254;19;20111;-84
2023/04/15 17:54:16;;;;;;;8.07;4.72;;;;;;;8.46;100.00;99497.59;12192410;19;20014;-85
2023/04/15 17:58:19;;;;;;;9.73;4.47;;;;;;;8.49;100.00;99507.25;12177455;19;20382;-82
2023/04/15 18:02:22;;;;;;;13.63;5.20;;;;;;;8.48;100.00;99508.31;12197076;19;20006;-82
2023/04/15 18:06:25;;;;;;;9.47;5.23;;;;;;;8.50;100.00;99514.41;12194745;19;20007;-83
2023/04/15 18:10:28;;;;;;;8.55;4.72;;;;;;;8.49;100.00;99512.75;12177268;19;20033;-81
2023/04/15 18:14:30;;;;;;;10.75;5.68;;;;;;;8.49;100.00;99524.56;12194351;19;20002;-81
2023/04/15 18:18:35;;;;;;;12.02;5.78;;;;;;;8.51;100.00;99524.34;12196529;19;20062;-81
2023/04/15 18:22:37;;;;;;;9.98;6.40;;;;;;;8.51;100.00;99535.31;12172397;19;20634;-81
2023/04/15 18:26:39;;;;;;;8.35;4.68;;;;;;;8.52;100.00;99546.03;12201178;19;19999;-82
2023/04/15 18:30:40;;;;;;;11.02;5.22;;;;;;;8.45;100.00;99553.59;12224295;19;20038;-83
2023/04/15 18:34:42;;;;;;;7.97;4.75;;;;;;;8.50;100.00;99556.44;12222473;19;20007;-83
2023/04/15 18:38:45;;;;;;;9.07;4.35;;;;;;;8.45;100.00;99559.09;12196619;19;20066;-82
2023/04/15 18:42:46;;;;;;;11.18;5.75;;;;;;;8.41;100.00;99568.88;12194091;19;20005;-83
2023/04/15 18:46:48;;;;;;;8.48;4.72;;;;;;;8.43;100.00;99569.47;12170030;19;20030;-83
2023/04/15 18:50:52;;;;;;;9.50;5.38;;;;;;;8.49;100.00;99575.91;12194113;19;20045;-83
2023/04/15 18:54:54;;;;;;;10.88;5.07;;;;;;;8.47;100.00;99578.88;12186296;19;20031;-82